PWSweather.com
Personal Weather Stations
Station Observations
KOHAVON11
Long Road Station, Avon, OH 44011

Long Road StationAvon, OH 44011

Lat: 41.437, Lon: -82.0477

Elevation: 686

Station Type: Davis Vantage Pro2

http://www.avon-weather.com

Latest ConditionsUpdated 5:22:31 AM EDT Saturday, Apr 19, 2014
Currently Today's Max Today's Min Today's Average
Temperature 36.2°F2.3°C 46.6°F8.1°C 36.2°F2.3°C 40.6°F4.8°C
Dew Point 30.9°F-0.6°C 40.7°F4.8°C 30.9°F-0.6°C 35.6°F2.0°C
Winds 4.0 mph NNE6.4 kmh NNE 13.0 mph N20.9 kmh N - 6.6 mph 10.6 kmh
Wind Gusts 13.0 mph20.9 kmh 18.0 mph29.0 kmh - -
Humidity 81% 84% 80% 82%
Pressure 30.35 in1027.8 mb 30.35 in1027.8 mb 30.28 in1025.4 mb -
Hour Temp Dew Point Humidity Winds Wind Gusts Pressure Precip Precip Rate Daily Precip Total
05:22 AM 36.2°F2.3°C 30.9°F-0.6°C 81% 4.0 mph NNE6.4 kmh NNE 13.0 mph20.9 kmh 30.35 in1027.8 mb 0.00 in0.0 mm 0.00 in/hr0.0 mm/hr 0.00 in0.0 mm
05:17 AM 36.3°F2.4°C 31.0°F-0.6°C 81% 6.0 mph NE9.7 kmh NE 13.0 mph20.9 kmh 30.35 in1027.8 mb 0.00 in0.0 mm 0.00 in/hr0.0 mm/hr 0.00 in0.0 mm
05:12 AM 36.3°F2.4°C 31.0°F-0.6°C 81% 7.0 mph NE11.3 kmh NE 12.0 mph19.3 kmh 30.35 in1027.8 mb 0.00 in0.0 mm 0.00 in/hr0.0 mm/hr 0.00 in0.0 mm
05:07 AM 36.5°F2.5°C 31.2°F-0.4°C 81% 8.0 mph NE12.9 kmh NE 18.0 mph29.0 kmh 30.35 in1027.8 mb 0.00 in0.0 mm 0.00 in/hr0.0 mm/hr 0.00 in0.0 mm
05:02 AM 36.7°F2.6°C 31.4°F-0.3°C 81% 4.0 mph NE6.4 kmh NE 18.0 mph29.0 kmh 30.35 in1027.8 mb 0.00 in0.0 mm 0.00 in/hr0.0 mm/hr 0.00 in0.0 mm
04:57 AM 36.7°F2.6°C 31.4°F-0.3°C 81% 11.0 mph NE17.7 kmh NE 18.0 mph29.0 kmh 30.34 in1027.4 mb 0.00 in0.0 mm 0.00 in/hr0.0 mm/hr 0.00 in0.0 mm
04:52 AM 36.8°F2.7°C 31.5°F-0.3°C 81% 5.0 mph NE8.0 kmh NE 18.0 mph29.0 kmh 30.34 in1027.4 mb 0.00 in0.0 mm 0.00 in/hr0.0 mm/hr 0.00 in0.0 mm
04:47 AM 36.8°F2.7°C 31.8°F-0.1°C 82% 7.0 mph NE11.3 kmh NE 13.0 mph20.9 kmh 30.34 in1027.4 mb 0.00 in0.0 mm 0.00 in/hr0.0 mm/hr 0.00 in0.0 mm
04:42 AM 36.9°F2.7°C 31.9°F-0.1°C 82% 6.0 mph NNE9.7 kmh NNE 13.0 mph20.9 kmh 30.34 in1027.4 mb 0.00 in0.0 mm 0.00 in/hr0.0 mm/hr 0.00 in0.0 mm
04:37 AM 37.0°F2.8°C 32.0°F0.0°C 82% 8.0 mph NNE12.9 kmh NNE 14.0 mph22.5 kmh 30.34 in1027.4 mb 0.00 in0.0 mm 0.00 in/hr0.0 mm/hr 0.00 in0.0 mm
04:32 AM 37.1°F2.8°C 32.1°F0.1°C 82% 6.0 mph NNE9.7 kmh NNE 14.0 mph22.5 kmh 30.34 in1027.4 mb 0.00 in0.0 mm 0.00 in/hr0.0 mm/hr 0.00 in0.0 mm
04:27 AM 37.2°F2.9°C 32.2°F0.1°C 82% 3.0 mph NE4.8 kmh NE 14.0 mph22.5 kmh 30.34 in1027.4 mb 0.00 in0.0 mm 0.00 in/hr0.0 mm/hr 0.00 in0.0 mm
04:22 AM 37.3°F2.9°C 32.3°F0.2°C 82% 6.0 mph NNE9.7 kmh NNE 14.0 mph22.5 kmh 30.34 in1027.4 mb 0.00 in0.0 mm 0.00 in/hr0.0 mm/hr 0.00 in0.0 mm
04:17 AM 37.3°F2.9°C 32.3°F0.2°C 82% 11.0 mph NE17.7 kmh NE 15.0 mph24.1 kmh 30.34 in1027.4 mb 0.00 in0.0 mm 0.00 in/hr0.0 mm/hr 0.00 in0.0 mm
04:12 AM 37.3°F2.9°C 32.6°F0.3°C 83% 9.0 mph NE14.5 kmh NE 15.0 mph24.1 kmh 30.34 in1027.4 mb 0.00 in0.0 mm 0.00 in/hr0.0 mm/hr 0.00 in0.0 mm
04:07 AM 37.3°F2.9°C 32.6°F0.3°C 83% 6.0 mph NNE9.7 kmh NNE 15.0 mph24.1 kmh 30.34 in1027.4 mb 0.00 in0.0 mm 0.00 in/hr0.0 mm/hr 0.00 in0.0 mm
04:02 AM 37.4°F3.0°C 32.7°F0.4°C 83% 10.0 mph NE16.1 kmh NE 15.0 mph24.1 kmh 30.34 in1027.4 mb 0.00 in0.0 mm 0.00 in/hr0.0 mm/hr 0.00 in0.0 mm
03:57 AM 37.5°F3.1°C 32.8°F0.4°C 83% 12.0 mph NE19.3 kmh NE 14.0 mph22.5 kmh 30.34 in1027.4 mb 0.00 in0.0 mm 0.00 in/hr0.0 mm/hr 0.00 in0.0 mm
03:52 AM 37.5°F3.1°C 33.1°F0.6°C 84% 8.0 mph NE12.9 kmh NE 14.0 mph22.5 kmh 30.34 in1027.4 mb 0.00 in0.0 mm 0.00 in/hr0.0 mm/hr 0.00 in0.0 mm
03:47 AM 37.6°F3.1°C 33.2°F0.7°C 84% 11.0 mph ENE17.7 kmh ENE 14.0 mph22.5 kmh 30.34 in1027.4 mb 0.00 in0.0 mm 0.00 in/hr0.0 mm/hr 0.00 in0.0 mm
03:42 AM 37.6°F3.1°C 33.2°F0.7°C 84% 7.0 mph NE11.3 kmh NE 13.0 mph20.9 kmh 30.34 in1027.4 mb 0.00 in0.0 mm 0.00 in/hr0.0 mm/hr 0.00 in0.0 mm
03:37 AM 37.6°F3.1°C 33.2°F0.7°C 84% 4.0 mph NE6.4 kmh NE 14.0 mph22.5 kmh 30.34 in1027.4 mb 0.00 in0.0 mm 0.00 in/hr0.0 mm/hr 0.00 in0.0 mm
03:32 AM 37.7°F3.2°C 33.3°F0.7°C 84% 6.0 mph NE9.7 kmh NE 14.0 mph22.5 kmh 30.34 in1027.4 mb 0.00 in0.0 mm 0.00 in/hr0.0 mm/hr 0.00 in0.0 mm
03:27 AM 37.8°F3.2°C 33.4°F0.8°C 84% 5.0 mph NNE8.0 kmh NNE 14.0 mph22.5 kmh 30.34 in1027.4 mb 0.00 in0.0 mm 0.00 in/hr0.0 mm/hr 0.00 in0.0 mm
03:22 AM 37.8°F3.2°C 33.4°F0.8°C 84% 11.0 mph NE17.7 kmh NE 14.0 mph22.5 kmh 30.33 in1027.1 mb 0.00 in0.0 mm 0.00 in/hr0.0 mm/hr 0.00 in0.0 mm
03:17 AM 37.9°F3.3°C 33.5°F0.8°C 84% 6.0 mph NE9.7 kmh NE 13.0 mph20.9 kmh 30.33 in1027.1 mb 0.00 in0.0 mm 0.00 in/hr0.0 mm/hr 0.00 in0.0 mm
03:12 AM 38.0°F3.3°C 33.6°F0.9°C 84% 7.0 mph NE11.3 kmh NE 15.0 mph24.1 kmh 30.33 in1027.1 mb 0.00 in0.0 mm 0.00 in/hr0.0 mm/hr 0.00 in0.0 mm
03:07 AM 38.1°F3.4°C 33.7°F0.9°C 84% 12.0 mph ENE19.3 kmh ENE 15.0 mph24.1 kmh 30.33 in1027.1 mb 0.00 in0.0 mm 0.00 in/hr0.0 mm/hr 0.00 in0.0 mm
03:02 AM 38.3°F3.5°C 33.9°F1.1°C 84% 9.0 mph NNE14.5 kmh NNE 18.0 mph29.0 kmh 30.32 in1026.8 mb 0.00 in0.0 mm 0.00 in/hr0.0 mm/hr 0.00 in0.0 mm
02:57 AM 38.4°F3.6°C 34.0°F1.1°C 84% 7.0 mph NE11.3 kmh NE 18.0 mph29.0 kmh 30.32 in1026.8 mb 0.00 in0.0 mm 0.00 in/hr0.0 mm/hr 0.00 in0.0 mm
02:52 AM 38.6°F3.7°C 33.9°F1.1°C 83% 4.0 mph NE6.4 kmh NE 18.0 mph29.0 kmh 30.32 in1026.8 mb 0.00 in0.0 mm 0.00 in/hr0.0 mm/hr 0.00 in0.0 mm
02:47 AM 38.8°F3.8°C 34.1°F1.2°C 83% 8.0 mph NE12.9 kmh NE 18.0 mph29.0 kmh 30.32 in1026.8 mb 0.00 in0.0 mm 0.00 in/hr0.0 mm/hr 0.00 in0.0 mm
02:42 AM 39.0°F3.9°C 34.3°F1.3°C 83% 8.0 mph NE12.9 kmh NE 17.0 mph27.4 kmh 30.33 in1027.1 mb 0.00 in0.0 mm 0.00 in/hr0.0 mm/hr 0.00 in0.0 mm
02:37 AM 39.3°F4.1°C 34.2°F1.2°C 82% 5.0 mph ENE8.0 kmh ENE 17.0 mph27.4 kmh 30.32 in1026.8 mb 0.00 in0.0 mm 0.00 in/hr0.0 mm/hr 0.00 in0.0 mm
02:32 AM 39.6°F4.2°C 34.5°F1.4°C 82% 7.0 mph NE11.3 kmh NE 17.0 mph27.4 kmh 30.32 in1026.8 mb 0.00 in0.0 mm 0.00 in/hr0.0 mm/hr 0.00 in0.0 mm
02:27 AM 40.0°F4.4°C 34.9°F1.6°C 82% 8.0 mph NE12.9 kmh NE 17.0 mph27.4 kmh 30.32 in1026.8 mb 0.00 in0.0 mm 0.00 in/hr0.0 mm/hr 0.00 in0.0 mm
02:22 AM 40.3°F4.6°C 35.2°F1.8°C 82% 6.0 mph NE9.7 kmh NE 16.0 mph25.7 kmh 30.32 in1026.8 mb 0.00 in0.0 mm 0.00 in/hr0.0 mm/hr 0.00 in0.0 mm
02:17 AM 40.7°F4.8°C 35.3°F1.8°C 81% 8.0 mph NE12.9 kmh NE 16.0 mph25.7 kmh 30.32 in1026.8 mb 0.00 in0.0 mm 0.00 in/hr0.0 mm/hr 0.00 in0.0 mm
02:12 AM 41.0°F5.0°C 35.6°F2.0°C 81% 10.0 mph NNE16.1 kmh NNE 14.0 mph22.5 kmh 30.32 in1026.8 mb 0.00 in0.0 mm 0.00 in/hr0.0 mm/hr 0.00 in0.0 mm
02:07 AM 41.5°F5.3°C 35.7°F2.1°C 80% 6.0 mph NE9.7 kmh NE 14.0 mph22.5 kmh 30.32 in1026.8 mb 0.00 in0.0 mm 0.00 in/hr0.0 mm/hr 0.00 in0.0 mm
02:02 AM 41.8°F5.4°C 36.0°F2.2°C 80% 12.0 mph NNE19.3 kmh NNE 14.0 mph22.5 kmh 30.31 in1026.4 mb 0.00 in0.0 mm 0.00 in/hr0.0 mm/hr 0.00 in0.0 mm
01:57 AM 42.2°F5.7°C 36.4°F2.4°C 80% 8.0 mph NE12.9 kmh NE 17.0 mph27.4 kmh 30.31 in1026.4 mb 0.00 in0.0 mm 0.00 in/hr0.0 mm/hr 0.00 in0.0 mm
01:52 AM 42.6°F5.9°C 37.1°F2.8°C 81% 5.0 mph N8.0 kmh N 17.0 mph27.4 kmh 30.31 in1026.4 mb 0.00 in0.0 mm 0.00 in/hr0.0 mm/hr 0.00 in0.0 mm
01:47 AM 43.0°F6.1°C 37.8°F3.2°C 82% 5.0 mph N8.0 kmh N 17.0 mph27.4 kmh 30.31 in1026.4 mb 0.00 in0.0 mm 0.00 in/hr0.0 mm/hr 0.00 in0.0 mm
01:42 AM 43.4°F6.3°C 38.6°F3.7°C 83% 8.0 mph NNE12.9 kmh NNE 17.0 mph27.4 kmh 30.31 in1026.4 mb 0.00 in0.0 mm 0.00 in/hr0.0 mm/hr 0.00 in0.0 mm
01:37 AM 43.8°F6.6°C 38.9°F3.8°C 83% 13.0 mph N20.9 kmh N 15.0 mph24.1 kmh 30.31 in1026.4 mb 0.00 in0.0 mm 0.00 in/hr0.0 mm/hr 0.00 in0.0 mm
01:32 AM 44.1°F6.7°C 39.5°F4.2°C 84% 6.0 mph NNE9.7 kmh NNE 11.0 mph17.7 kmh 30.31 in1026.4 mb 0.00 in0.0 mm 0.00 in/hr0.0 mm/hr 0.00 in0.0 mm
01:27 AM 44.4°F6.9°C 39.5°F4.2°C 83% 6.0 mph NE9.7 kmh NE 11.0 mph17.7 kmh 30.31 in1026.4 mb 0.00 in0.0 mm 0.00 in/hr0.0 mm/hr 0.00 in0.0 mm
01:22 AM 44.6°F7.0°C 39.7°F4.3°C 83% 4.0 mph NE6.4 kmh NE 10.0 mph16.1 kmh 30.30 in1026.1 mb 0.00 in0.0 mm 0.00 in/hr0.0 mm/hr 0.00 in0.0 mm
01:17 AM 44.8°F7.1°C 39.9°F4.4°C 83% 7.0 mph NE11.3 kmh NE 10.0 mph16.1 kmh 30.30 in1026.1 mb 0.00 in0.0 mm 0.00 in/hr0.0 mm/hr 0.00 in0.0 mm
01:12 AM 45.0°F7.2°C 40.1°F4.5°C 83% 5.0 mph NE8.0 kmh NE 10.0 mph16.1 kmh 30.30 in1026.1 mb 0.00 in0.0 mm 0.00 in/hr0.0 mm/hr 0.00 in0.0 mm
01:07 AM 45.2°F7.3°C 40.3°F4.6°C 83% 5.0 mph NE8.0 kmh NE 10.0 mph16.1 kmh 30.30 in1026.1 mb 0.00 in0.0 mm 0.00 in/hr0.0 mm/hr 0.00 in0.0 mm
01:02 AM 45.2°F7.3°C 40.3°F4.6°C 83% 3.0 mph NE4.8 kmh NE 10.0 mph16.1 kmh 30.30 in1026.1 mb 0.00 in0.0 mm 0.00 in/hr0.0 mm/hr 0.00 in0.0 mm
12:57 AM 45.3°F7.4°C 40.4°F4.7°C 83% 5.0 mph NE8.0 kmh NE 10.0 mph16.1 kmh 30.29 in1025.7 mb 0.00 in0.0 mm 0.00 in/hr0.0 mm/hr 0.00 in0.0 mm
12:52 AM 45.3°F7.4°C 40.4°F4.7°C 83% 8.0 mph NNE12.9 kmh NNE 10.0 mph16.1 kmh 30.29 in1025.7 mb 0.00 in0.0 mm 0.00 in/hr0.0 mm/hr 0.00 in0.0 mm
12:47 AM 45.3°F7.4°C 40.4°F4.7°C 83% 5.0 mph NE8.0 kmh NE 8.0 mph12.9 kmh 30.29 in1025.7 mb 0.00 in0.0 mm 0.00 in/hr0.0 mm/hr 0.00 in0.0 mm
12:42 AM 45.3°F7.4°C 40.4°F4.7°C 83% 8.0 mph NE12.9 kmh NE 8.0 mph12.9 kmh 30.29 in1025.7 mb 0.00 in0.0 mm 0.00 in/hr0.0 mm/hr 0.00 in0.0 mm
12:37 AM 45.3°F7.4°C 40.4°F4.7°C 83% 5.0 mph NE8.0 kmh NE 7.0 mph11.3 kmh 30.29 in1025.7 mb 0.00 in0.0 mm 0.00 in/hr0.0 mm/hr 0.00 in0.0 mm
12:32 AM 45.4°F7.4°C 40.2°F4.6°C 82% 2.0 mph NE3.2 kmh NE 7.0 mph11.3 kmh 30.29 in1025.7 mb 0.00 in0.0 mm 0.00 in/hr0.0 mm/hr 0.00 in0.0 mm
12:27 AM 45.5°F7.5°C 40.0°F4.4°C 81% 4.0 mph NE6.4 kmh NE 7.0 mph11.3 kmh 30.29 in1025.7 mb 0.00 in0.0 mm 0.00 in/hr0.0 mm/hr 0.00 in0.0 mm
12:22 AM 45.9°F7.7°C 40.3°F4.6°C 81% 3.0 mph NE4.8 kmh NE 7.0 mph11.3 kmh 30.28 in1025.4 mb 0.00 in0.0 mm 0.00 in/hr0.0 mm/hr 0.00 in0.0 mm
12:17 AM 46.0°F7.8°C 40.4°F4.7°C 81% 3.0 mph NE4.8 kmh NE 7.0 mph11.3 kmh 30.28 in1025.4 mb 0.00 in0.0 mm 0.00 in/hr0.0 mm/hr 0.00 in0.0 mm
12:12 AM 46.1°F7.8°C 40.5°F4.7°C 81% 2.0 mph NE3.2 kmh NE 6.0 mph9.7 kmh 30.28 in1025.4 mb 0.00 in0.0 mm 0.00 in/hr0.0 mm/hr 0.00 in0.0 mm
12:07 AM 46.3°F7.9°C 40.4°F4.7°C 80% 3.0 mph NE4.8 kmh NE 7.0 mph11.3 kmh 30.28 in1025.4 mb 0.00 in0.0 mm 0.00 in/hr0.0 mm/hr 0.00 in0.0 mm
12:02 AM 46.6°F8.1°C 40.7°F4.8°C 80% 2.0 mph NE3.2 kmh NE 7.0 mph11.3 kmh 30.28 in1025.4 mb 0.00 in0.0 mm 0.00 in/hr0.0 mm/hr 0.00 in0.0 mm